createdAt,value
2023-02-03T00:00:15.714Z,4.56
2023-02-03T00:02:42.657Z,4.19
2023-02-03T00:05:10.413Z,4.05
2023-02-03T00:07:37.537Z,4.26
2023-02-03T00:10:04.254Z,3.90
2023-02-03T00:12:30.881Z,4.37
2023-02-03T00:14:57.498Z,4.06
2023-02-03T00:17:24.130Z,4.36
2023-02-03T00:19:50.698Z,4.60
2023-02-03T00:22:17.377Z,4.52
2023-02-03T00:24:44.048Z,4.72
2023-02-03T00:27:10.609Z,4.35
2023-02-03T00:29:37.193Z,4.23
2023-02-03T00:32:04.016Z,4.44
2023-02-03T00:34:30.639Z,4.58
2023-02-03T00:36:57.227Z,4.42
2023-02-03T00:39:25.054Z,4.37
2023-02-03T00:41:51.623Z,4.16
2023-02-03T00:44:18.252Z,4.41
2023-02-03T00:46:44.930Z,4.22
2023-02-03T00:49:11.483Z,4.43
2023-02-03T00:51:38.205Z,4.33
2023-02-03T00:54:04.756Z,4.03
2023-02-03T00:56:31.295Z,4.16
2023-02-03T00:58:57.863Z,4.21
2023-02-03T01:01:24.438Z,4.43
2023-02-03T01:03:51.105Z,4.36
2023-02-03T01:06:20.750Z,3.84
2023-02-03T01:08:47.638Z,4.90
2023-02-03T01:11:15.995Z,4.47
2023-02-03T01:13:44.064Z,4.45
2023-02-03T01:16:11.228Z,4.46
2023-02-03T01:18:38.071Z,4.46
2023-02-03T01:21:09.110Z,4.20
2023-02-03T01:23:36.346Z,4.12
2023-02-03T01:26:06.659Z,4.36
2023-02-03T01:28:33.216Z,4.27
2023-02-03T01:31:10.467Z,3.89
2023-02-03T01:33:37.133Z,4.31
2023-02-03T01:36:03.830Z,4.26
2023-02-03T01:38:30.386Z,4.06
2023-02-03T01:40:56.970Z,4.26
2023-02-03T01:43:33.492Z,4.42
2023-02-03T01:46:01.210Z,3.92
2023-02-03T01:48:27.781Z,4.29
2023-02-03T01:50:54.386Z,4.34
2023-02-03T01:53:21.109Z,3.91
2023-02-03T01:55:48.455Z,4.24
2023-02-03T01:58:18.749Z,4.23
2023-02-03T02:00:45.317Z,4.19
2023-02-03T02:03:11.967Z,4.22
2023-02-03T02:06:00.340Z,4.22
2023-02-03T02:08:26.878Z,4.47
2023-02-03T02:10:53.472Z,4.21
2023-02-03T02:13:20.033Z,4.22
2023-02-03T02:16:29.594Z,4.34
2023-02-03T02:19:15.778Z,4.56
2023-02-03T02:22:00.948Z,4.49
2023-02-03T02:25:08.771Z,4.57
2023-02-03T02:27:50.122Z,4.48
2023-02-03T02:30:55.620Z,4.17
2023-02-03T02:33:27.832Z,4.63
2023-02-03T02:36:24.289Z,4.80
2023-02-03T02:38:59.326Z,4.29
2023-02-03T02:41:35.909Z,4.85
2023-02-03T02:44:13.025Z,4.57
2023-02-03T02:46:42.347Z,4.69
2023-02-03T02:49:13.307Z,4.79
2023-02-03T02:51:39.859Z,4.58
2023-02-03T02:54:08.151Z,4.55
2023-02-03T02:56:34.886Z,4.42
2023-02-03T02:59:02.247Z,4.55
2023-02-03T03:01:28.840Z,5.02
2023-02-03T03:03:55.504Z,5.26
2023-02-03T03:06:27.770Z,4.43
2023-02-03T03:09:06.016Z,4.36
2023-02-03T03:11:33.913Z,4.63
2023-02-03T03:14:00.477Z,4.29
2023-02-03T03:16:27.598Z,4.52
2023-02-03T03:19:02.731Z,4.58
2023-02-03T03:21:32.681Z,4.34
2023-02-03T03:23:59.822Z,4.79
2023-02-03T03:26:39.729Z,4.67
2023-02-03T03:29:16.410Z,4.69
2023-02-03T03:31:43.010Z,4.49
2023-02-03T03:34:09.799Z,4.55
2023-02-03T03:36:44.148Z,4.38
2023-02-03T03:39:15.337Z,4.69
2023-02-03T03:41:50.122Z,4.75
2023-02-03T03:44:16.664Z,4.57
2023-02-03T03:46:51.339Z,4.79
2023-02-03T03:49:17.990Z,4.84
2023-02-03T03:51:47.865Z,5.00
2023-02-03T03:54:19.229Z,5.39
2023-02-03T03:57:02.311Z,5.14
2023-02-03T03:59:30.747Z,4.82
2023-02-03T04:01:57.904Z,4.85
2023-02-03T04:04:24.605Z,4.59
2023-02-03T04:06:53.406Z,4.48
2023-02-03T04:09:19.980Z,4.58
2023-02-03T04:11:46.556Z,4.57
2023-02-03T04:14:13.307Z,4.70
2023-02-03T04:16:39.925Z,4.23
2023-02-03T04:19:08.453Z,4.64
2023-02-03T04:21:35.200Z,4.40
2023-02-03T04:24:01.779Z,4.45
2023-02-03T04:26:28.555Z,4.41
2023-02-03T04:28:55.099Z,4.66
2023-02-03T04:31:21.728Z,4.54
2023-02-03T04:33:48.453Z,4.63
2023-02-03T04:36:15.072Z,4.36
2023-02-03T04:38:41.689Z,4.83
2023-02-03T04:41:08.463Z,4.97
2023-02-03T04:43:35.035Z,4.71
2023-02-03T04:46:01.655Z,4.38
2023-02-03T04:48:28.254Z,4.57
2023-02-03T04:50:54.851Z,4.66
2023-02-03T04:53:21.438Z,4.92
2023-02-03T04:55:48.195Z,4.47
2023-02-03T04:58:14.784Z,4.62
2023-02-03T05:00:41.337Z,5.00
2023-02-03T05:03:07.953Z,4.97
2023-02-03T05:05:34.521Z,5.04
2023-02-03T05:08:01.107Z,4.63
2023-02-03T05:10:27.816Z,4.94
2023-02-03T05:12:54.517Z,4.82
2023-02-03T05:15:21.150Z,4.39
2023-02-03T05:17:47.704Z,4.86
2023-02-03T05:20:14.261Z,4.86
2023-02-03T05:22:40.805Z,5.06
2023-02-03T05:25:07.858Z,4.73
2023-02-03T05:27:34.441Z,5.05
2023-02-03T05:30:01.020Z,5.01
2023-02-03T05:32:27.566Z,4.84
2023-02-03T05:34:54.131Z,4.86
2023-02-03T05:37:20.677Z,4.96
2023-02-03T05:39:47.226Z,4.99
2023-02-03T05:42:13.766Z,5.15
2023-02-03T05:44:40.314Z,4.83
2023-02-03T05:47:06.867Z,4.86
2023-02-03T05:49:33.415Z,5.00
2023-02-03T05:51:59.988Z,5.71
2023-02-03T05:54:26.538Z,5.47
2023-02-03T05:56:53.113Z,5.22
2023-02-03T05:59:19.712Z,5.10
2023-02-03T06:01:46.256Z,4.95
2023-02-03T06:04:12.852Z,5.03
2023-02-03T06:06:39.469Z,4.89
2023-02-03T06:09:07.113Z,5.08
2023-02-03T06:11:33.778Z,4.58
2023-02-03T06:14:00.333Z,4.92
2023-02-03T06:16:27.193Z,4.86
2023-02-03T06:18:54.060Z,4.51
2023-02-03T06:21:21.069Z,4.43
2023-02-03T06:23:47.646Z,4.65
2023-02-03T06:26:14.216Z,4.88
2023-02-03T06:28:40.812Z,4.74
2023-02-03T06:31:07.444Z,4.60
2023-02-03T06:33:34.098Z,4.94
2023-02-03T06:36:00.677Z,5.25
2023-02-03T06:38:27.225Z,4.98
2023-02-03T06:40:53.889Z,4.13
2023-02-03T06:43:20.474Z,4.01
2023-02-03T06:45:47.034Z,4.01
2023-02-03T06:48:13.845Z,3.67
2023-02-03T06:50:40.708Z,3.82
2023-02-03T06:53:07.321Z,3.91
2023-02-03T06:55:33.875Z,3.91
2023-02-03T06:58:00.635Z,4.41
2023-02-03T07:00:27.445Z,4.31
2023-02-03T07:02:55.200Z,5.29
2023-02-03T07:05:22.297Z,7.14
2023-02-03T07:07:48.836Z,15.45
2023-02-03T07:10:15.497Z,12.44
2023-02-03T07:12:42.118Z,14.83
2023-02-03T07:15:09.205Z,26.15
2023-02-03T07:17:35.751Z,11.04
2023-02-03T07:20:02.382Z,16.55
2023-02-03T07:22:28.993Z,24.99
2023-02-03T07:24:55.727Z,21.62
2023-02-03T07:27:23.350Z,19.78
2023-02-03T07:29:49.888Z,10.14
2023-02-03T07:32:16.426Z,11.27
2023-02-03T07:34:42.957Z,13.89
2023-02-03T07:37:09.517Z,13.05
2023-02-03T07:39:36.066Z,14.06
2023-02-03T07:42:02.627Z,18.40
2023-02-03T07:44:29.193Z,26.79
2023-02-03T07:46:55.795Z,19.28
2023-02-03T07:49:22.383Z,22.97
2023-02-03T07:51:48.942Z,9.09
2023-02-03T07:54:15.487Z,8.60
2023-02-03T07:56:42.802Z,7.74
2023-02-03T07:59:09.371Z,6.53
2023-02-03T08:01:35.911Z,6.46
2023-02-03T08:04:02.524Z,12.01
2023-02-03T08:06:29.074Z,8.94
2023-02-03T08:08:55.666Z,7.33
2023-02-03T08:11:22.199Z,7.65
2023-02-03T08:13:48.755Z,10.22
2023-02-03T08:16:15.338Z,13.42
2023-02-03T08:18:41.941Z,10.57
2023-02-03T08:21:08.502Z,13.55
2023-02-03T08:23:35.069Z,14.32
2023-02-03T08:26:01.628Z,7.65
2023-02-03T08:28:28.234Z,11.47
2023-02-03T08:30:54.854Z,18.81
2023-02-03T08:33:21.513Z,16.93
2023-02-03T08:35:49.110Z,32.17
2023-02-03T08:38:15.890Z,19.48
2023-02-03T08:40:42.541Z,17.67
2023-02-03T08:43:09.151Z,26.39
2023-02-03T08:45:35.824Z,18.51
2023-02-03T08:48:02.484Z,12.20
2023-02-03T08:50:29.398Z,22.65
2023-02-03T08:52:56.237Z,18.06
2023-02-03T08:55:22.875Z,12.89
2023-02-03T08:57:49.522Z,9.56
2023-02-03T09:00:16.492Z,9.00
2023-02-03T09:02:43.145Z,10.75
2023-02-03T09:05:10.006Z,9.70
2023-02-03T09:07:36.698Z,6.75
2023-02-03T09:10:03.635Z,5.42
2023-02-03T09:12:30.332Z,4.80
2023-02-03T09:14:56.924Z,4.28
2023-02-03T09:17:23.595Z,5.52
2023-02-03T09:19:50.282Z,4.94
2023-02-03T09:22:18.781Z,5.64
2023-02-03T09:24:45.483Z,3.79
2023-02-03T09:27:12.121Z,4.61
2023-02-03T09:29:38.761Z,4.53
2023-02-03T09:32:05.498Z,4.16
2023-02-03T09:34:32.104Z,4.11
2023-02-03T09:36:58.746Z,3.89
2023-02-03T09:39:25.399Z,4.56
2023-02-03T09:42:00.136Z,9.98
2023-02-03T09:44:27.465Z,5.78
2023-02-03T09:46:59.278Z,7.29
2023-02-03T09:49:29.295Z,14.39
2023-02-03T09:51:57.820Z,4.17
2023-02-03T09:54:43.062Z,5.60
2023-02-03T09:57:15.736Z,6.98
2023-02-03T09:59:42.410Z,7.37
2023-02-03T10:02:33.620Z,8.74
2023-02-03T10:05:20.390Z,10.35
2023-02-03T10:08:48.869Z,10.50
2023-02-03T10:11:50.215Z,11.39
2023-02-03T10:15:00.931Z,15.70
2023-02-03T10:17:37.978Z,4.15
2023-02-03T10:20:18.403Z,4.87
2023-02-03T10:23:11.991Z,5.89
2023-02-03T10:25:41.482Z,8.22
2023-02-03T10:28:16.771Z,6.04
2023-02-03T10:30:46.215Z,4.16
2023-02-03T10:33:17.516Z,3.80
2023-02-03T10:35:55.761Z,4.16
2023-02-03T10:38:58.203Z,5.19
2023-02-03T10:41:24.949Z,4.41
2023-02-03T10:43:52.113Z,4.31
2023-02-03T10:46:27.790Z,4.27
2023-02-03T10:48:54.541Z,4.46
2023-02-03T10:51:23.456Z,4.71
2023-02-03T10:53:50.303Z,4.15
2023-02-03T10:56:17.076Z,4.30
2023-02-03T10:59:05.909Z,4.64
2023-02-03T11:01:39.994Z,4.87
2023-02-03T11:04:07.715Z,4.37
2023-02-03T11:06:34.396Z,12.07
2023-02-03T11:09:01.021Z,10.32
2023-02-03T11:11:31.726Z,6.01
2023-02-03T11:14:04.494Z,5.25
2023-02-03T11:16:32.874Z,5.35
2023-02-03T11:19:03.398Z,5.03
2023-02-03T11:21:39.148Z,4.79
2023-02-03T11:24:24.161Z,4.76
2023-02-03T11:27:19.968Z,5.01
2023-02-03T11:29:47.718Z,4.88
2023-02-03T11:32:27.808Z,4.52
2023-02-03T11:34:57.248Z,4.61
2023-02-03T11:37:33.404Z,4.86
2023-02-03T11:40:08.959Z,5.43
2023-02-03T11:42:36.332Z,5.30
2023-02-03T11:45:18.075Z,4.83
2023-02-03T11:47:46.806Z,5.45
2023-02-03T11:50:31.102Z,4.44
2023-02-03T11:53:10.326Z,4.20
2023-02-03T11:55:46.073Z,3.82
2023-02-03T11:58:17.391Z,3.68
2023-02-03T12:00:56.166Z,4.04
2023-02-03T12:03:44.276Z,4.36
2023-02-03T12:06:51.962Z,4.76
2023-02-03T12:09:34.269Z,5.64
2023-02-03T12:12:20.706Z,5.23
2023-02-03T12:14:49.546Z,4.86
2023-02-03T12:17:26.215Z,4.62
2023-02-03T12:20:19.075Z,4.51
2023-02-03T12:22:57.371Z,3.75
2023-02-03T12:25:59.051Z,4.24
2023-02-03T12:28:33.585Z,4.31
2023-02-03T12:31:23.632Z,4.25
2023-02-03T12:33:52.725Z,4.65
2023-02-03T12:36:22.648Z,4.50
2023-02-03T12:39:24.336Z,4.39
2023-02-03T12:42:18.151Z,4.10
2023-02-03T12:44:48.839Z,4.28
2023-02-03T12:47:26.500Z,3.99
2023-02-03T12:50:44.087Z,4.74
2023-02-03T12:53:14.595Z,4.91
2023-02-03T12:55:46.398Z,5.33
2023-02-03T12:58:58.566Z,5.58
2023-02-03T13:01:43.244Z,5.76
2023-02-03T13:04:09.771Z,6.25
2023-02-03T13:06:55.067Z,5.57
2023-02-03T13:09:28.957Z,5.68
2023-02-03T13:12:03.620Z,5.63
2023-02-03T13:14:36.647Z,5.63
2023-02-03T13:17:28.355Z,5.56
2023-02-03T13:20:00.323Z,5.50
2023-02-03T13:22:27.050Z,5.06
2023-02-03T13:25:05.084Z,4.98
2023-02-03T13:27:52.628Z,4.75
2023-02-03T13:30:50.372Z,4.50
2023-02-03T13:33:44.615Z,4.64
2023-02-03T13:36:16.978Z,4.44
2023-02-03T13:38:52.325Z,4.80
2023-02-03T13:41:26.977Z,3.96
2023-02-03T13:43:53.654Z,3.74
2023-02-03T13:46:28.552Z,4.27
2023-02-03T13:48:56.118Z,3.52
2023-02-03T13:51:24.398Z,3.39
2023-02-03T13:53:51.362Z,3.47
2023-02-03T13:56:24.567Z,3.38
2023-02-03T13:59:04.463Z,3.47
2023-02-03T14:01:38.254Z,3.20
2023-02-03T14:04:08.659Z,2.91
2023-02-03T14:06:38.294Z,2.57
2023-02-03T14:09:20.700Z,2.99
2023-02-03T14:11:51.970Z,2.82
2023-02-03T14:14:18.501Z,3.09
2023-02-03T14:16:52.668Z,3.20
2023-02-03T14:19:30.143Z,3.39
2023-02-03T14:22:01.783Z,3.66
2023-02-03T14:24:32.120Z,3.42
2023-02-03T14:26:58.848Z,3.47
2023-02-03T14:29:32.492Z,3.22
2023-02-03T14:32:12.078Z,2.88
2023-02-03T14:34:43.115Z,2.67
2023-02-03T14:37:15.707Z,2.84
2023-02-03T14:40:08.423Z,2.67
2023-02-03T14:43:11.973Z,3.02
2023-02-03T14:46:14.826Z,2.89
2023-02-03T14:49:12.122Z,3.08
2023-02-03T14:52:03.042Z,3.21
2023-02-03T14:54:54.137Z,3.45
2023-02-03T14:57:48.163Z,3.62
2023-02-03T15:00:20.789Z,2.77
2023-02-03T15:03:09.131Z,2.52
2023-02-03T15:05:39.536Z,2.75
2023-02-03T15:08:38.970Z,2.71
2023-02-03T15:11:28.591Z,2.95
2023-02-03T15:13:56.708Z,2.80
2023-02-03T15:16:24.475Z,2.79
2023-02-03T15:19:03.429Z,2.75
2023-02-03T15:21:30.091Z,2.52
2023-02-03T15:23:56.687Z,2.57
2023-02-03T15:26:24.763Z,2.58
2023-02-03T15:28:58.011Z,2.56
2023-02-03T15:31:33.428Z,2.36
2023-02-03T15:34:04.014Z,2.18
2023-02-03T15:36:45.417Z,2.00
2023-02-03T15:39:17.903Z,2.28
2023-02-03T15:41:44.497Z,2.35
2023-02-03T15:44:34.981Z,2.94
2023-02-03T15:47:02.458Z,2.16
2023-02-03T15:49:39.070Z,2.29
2023-02-03T15:52:32.062Z,2.38
2023-02-03T15:55:06.199Z,2.38
2023-02-03T15:57:33.116Z,2.70
2023-02-03T16:00:12.585Z,2.53
2023-02-03T16:02:41.959Z,2.73
2023-02-03T16:05:22.540Z,3.26
2023-02-03T16:07:49.187Z,2.83
2023-02-03T16:10:26.012Z,2.81
2023-02-03T16:12:52.687Z,3.18
2023-02-03T16:15:23.644Z,3.02
2023-02-03T16:17:55.109Z,3.23
2023-02-03T16:20:26.046Z,3.40
2023-02-03T16:23:18.089Z,4.77
2023-02-03T16:25:44.743Z,8.49
2023-02-03T16:28:16.542Z,5.71
2023-02-03T16:31:14.657Z,3.97
2023-02-03T16:33:52.635Z,3.44
2023-02-03T16:36:19.251Z,3.39
2023-02-03T16:38:46.797Z,3.44
2023-02-03T16:41:16.345Z,3.49
2023-02-03T16:43:42.996Z,3.65
2023-02-03T16:46:11.199Z,3.54
2023-02-03T16:48:37.818Z,3.10
2023-02-03T16:51:07.044Z,3.25
2023-02-03T16:53:33.765Z,3.87
2023-02-03T16:56:01.515Z,3.18
2023-02-03T16:58:28.120Z,3.24
2023-02-03T17:00:55.385Z,3.91
2023-02-03T17:03:24.097Z,7.78
2023-02-03T17:05:51.014Z,5.56
2023-02-03T17:08:19.578Z,4.19
2023-02-03T17:10:46.213Z,5.65
2023-02-03T17:13:12.798Z,3.85
2023-02-03T17:15:42.499Z,3.48
2023-02-03T17:18:09.158Z,3.45
2023-02-03T17:20:35.821Z,3.86
2023-02-03T17:23:02.614Z,3.81
2023-02-03T17:25:29.678Z,4.26
2023-02-03T17:27:56.559Z,4.52
2023-02-03T17:30:23.241Z,5.55
2023-02-03T17:32:49.853Z,5.86
2023-02-03T17:35:16.506Z,7.47
2023-02-03T17:37:43.102Z,8.14
2023-02-03T17:53:56.911Z,8.67
2023-02-03T17:56:24.361Z,7.26
2023-02-03T17:58:57.911Z,7.57
2023-02-03T18:01:24.606Z,6.53
2023-02-03T18:03:52.581Z,5.86
2023-02-03T18:06:20.144Z,5.23
2023-02-03T18:08:47.061Z,5.56
2023-02-03T18:11:13.793Z,5.19
2023-02-03T18:13:41.707Z,5.73
2023-02-03T18:16:10.165Z,5.85
2023-02-03T18:18:36.802Z,5.62
2023-02-03T18:21:06.549Z,5.85
2023-02-03T18:23:33.444Z,5.69
2023-02-03T18:26:00.093Z,5.85
2023-02-03T18:28:26.719Z,5.43
2023-02-03T18:31:03.139Z,6.17
2023-02-03T18:33:29.830Z,5.22
2023-02-03T18:36:00.096Z,5.99
2023-02-03T18:38:26.876Z,5.68
2023-02-03T18:40:53.532Z,5.86
2023-02-03T18:43:20.637Z,5.94
2023-02-03T18:45:47.282Z,6.11
2023-02-03T18:48:13.891Z,6.80
2023-02-03T18:50:41.475Z,6.45
2023-02-03T18:53:08.134Z,6.06
2023-02-03T18:55:34.767Z,6.10
2023-02-03T18:58:01.465Z,6.85
2023-02-03T19:00:28.386Z,7.26
2023-02-03T19:02:55.282Z,7.31
2023-02-03T19:05:21.949Z,7.87
2023-02-03T19:07:48.559Z,7.75
2023-02-03T19:10:15.185Z,6.09
2023-02-03T19:12:41.848Z,4.67
2023-02-03T19:15:10.386Z,4.69
2023-02-03T19:17:37.244Z,4.68
2023-02-03T19:20:04.779Z,4.40
2023-02-03T19:22:31.881Z,4.58
2023-02-03T19:24:58.600Z,3.69
2023-02-03T19:27:25.298Z,3.52
2023-02-03T19:29:51.978Z,3.85
2023-02-03T19:32:18.616Z,3.73
2023-02-03T19:34:45.240Z,3.58
2023-02-03T19:37:11.886Z,3.43
2023-02-03T19:39:38.539Z,3.41
2023-02-03T19:42:05.253Z,3.34
2023-02-03T19:44:31.889Z,2.88
2023-02-03T19:46:58.480Z,2.89
2023-02-03T19:49:25.105Z,2.94
2023-02-03T19:51:51.698Z,2.77
2023-02-03T19:54:18.326Z,3.28
2023-02-03T19:56:44.973Z,3.76
2023-02-03T19:59:11.593Z,3.81
2023-02-03T20:01:38.321Z,3.95
2023-02-03T20:04:05.061Z,3.66
2023-02-03T20:06:31.692Z,3.81
2023-02-03T20:08:58.332Z,4.77
2023-02-03T20:11:25.022Z,4.94
2023-02-03T20:13:51.774Z,5.48
2023-02-03T20:16:18.689Z,4.10
2023-02-03T20:18:45.540Z,4.53
2023-02-03T20:21:12.229Z,4.57
2023-02-03T20:23:38.865Z,3.86
2023-02-03T20:26:05.940Z,4.21
2023-02-03T20:28:32.563Z,4.51
2023-02-03T20:31:00.013Z,4.09
2023-02-03T20:33:27.878Z,3.97
2023-02-03T20:35:54.736Z,3.42
2023-02-03T20:38:21.334Z,3.58
2023-02-03T20:40:47.963Z,4.05
2023-02-03T20:43:22.178Z,4.14
2023-02-03T20:45:49.056Z,3.53
2023-02-03T20:48:16.599Z,3.35
2023-02-03T20:50:43.898Z,4.32
2023-02-03T20:53:13.065Z,4.11
2023-02-03T20:55:42.453Z,3.76
2023-02-03T20:58:28.858Z,3.55
2023-02-03T21:00:55.503Z,3.68
2023-02-03T21:03:22.152Z,3.86
2023-02-03T21:05:48.804Z,3.67
2023-02-03T21:08:19.671Z,4.10
2023-02-03T21:13:45.852Z,4.26
2023-02-03T21:16:25.443Z,4.94
2023-02-03T21:18:56.129Z,4.44
2023-02-03T21:21:39.317Z,4.94
2023-02-03T21:24:25.944Z,5.12
2023-02-03T21:26:53.157Z,5.08
2023-02-03T21:29:31.692Z,4.93
2023-02-03T21:31:58.352Z,5.48
2023-02-03T21:34:31.846Z,5.10
2023-02-03T21:37:14.068Z,5.14
2023-02-03T21:39:40.726Z,5.07
2023-02-03T21:42:28.324Z,5.00
2023-02-03T21:44:56.400Z,4.53
2023-02-03T21:47:22.988Z,4.42
2023-02-03T21:49:49.620Z,4.59
2023-02-03T21:52:16.330Z,3.84
2023-02-03T21:54:43.057Z,4.48
2023-02-03T21:57:15.236Z,4.23
2023-02-03T21:59:41.975Z,4.22
2023-02-03T22:02:46.136Z,3.71
2023-02-03T22:05:16.905Z,12.48
2023-02-03T22:07:43.694Z,7.94
2023-02-03T22:10:10.319Z,11.20
2023-02-03T22:12:36.933Z,7.09
2023-02-03T22:15:03.951Z,12.02
2023-02-03T22:17:30.539Z,12.36
2023-02-03T22:19:57.174Z,8.97
2023-02-03T22:22:24.165Z,9.08
2023-02-03T22:24:50.780Z,11.08
2023-02-03T22:27:17.389Z,15.22
2023-02-03T22:29:44.018Z,9.74
2023-02-03T22:32:10.656Z,6.30
2023-02-03T22:34:37.254Z,7.12
2023-02-03T22:37:03.891Z,8.23
2023-02-03T22:39:30.689Z,6.32
2023-02-03T22:41:57.357Z,5.26
2023-02-03T22:44:24.013Z,10.44
2023-02-03T22:46:50.626Z,14.40
2023-02-03T22:49:17.284Z,21.80
2023-02-03T22:51:43.916Z,11.86
2023-02-03T22:54:10.549Z,12.27
2023-02-03T22:56:37.153Z,8.06
2023-02-03T22:59:03.841Z,3.93
2023-02-03T23:01:31.289Z,4.60
2023-02-03T23:03:57.979Z,8.61
2023-02-03T23:06:25.607Z,4.13
2023-02-03T23:08:52.194Z,3.78
2023-02-03T23:11:18.827Z,3.64
2023-02-03T23:13:45.572Z,3.88
2023-02-03T23:16:12.247Z,3.34
2023-02-03T23:18:38.869Z,3.47
2023-02-03T23:21:05.643Z,3.22
2023-02-03T23:23:32.279Z,3.55
2023-02-03T23:25:58.968Z,3.99
2023-02-03T23:28:25.686Z,3.70
2023-02-03T23:30:52.406Z,3.70
2023-02-03T23:33:19.052Z,3.51
2023-02-03T23:35:45.808Z,3.42
2023-02-03T23:38:15.633Z,3.51
2023-02-03T23:40:42.866Z,3.68
2023-02-03T23:43:09.606Z,3.61
2023-02-03T23:45:36.262Z,3.24
2023-02-03T23:48:02.892Z,3.54
2023-02-03T23:50:29.908Z,3.63
2023-02-03T23:52:56.731Z,3.56
2023-02-03T23:55:23.550Z,3.36
2023-02-03T23:57:50.368Z,3.29
